createdAt,value
2022-08-27T00:02:08.804Z,10.80
2022-08-27T00:04:37.849Z,11.20
2022-08-27T00:07:07.425Z,12.20
2022-08-27T00:09:35.397Z,11.30
2022-08-27T00:12:04.288Z,12.20
2022-08-27T00:14:32.974Z,15.10
2022-08-27T00:17:01.357Z,12.10
2022-08-27T00:19:29.217Z,11.10
2022-08-27T00:21:57.187Z,11.20
2022-08-27T00:24:26.267Z,11.20
2022-08-27T00:26:54.251Z,10.60
2022-08-27T00:29:22.323Z,11.80
2022-08-27T00:31:53.326Z,10.90
2022-08-27T00:34:22.672Z,11.40
2022-08-27T00:36:50.939Z,10.80
2022-08-27T00:39:19.626Z,10.50
2022-08-27T00:41:48.928Z,10.60
2022-08-27T00:44:17.198Z,12.10
2022-08-27T00:46:50.089Z,9.90
2022-08-27T00:49:44.475Z,12.50
2022-08-27T00:52:12.747Z,9.90
2022-08-27T00:54:41.469Z,12.00
2022-08-27T00:57:09.515Z,9.10
2022-08-27T00:59:37.576Z,9.90
2022-08-27T01:02:21.798Z,9.90
2022-08-27T01:04:56.775Z,9.40
2022-08-27T01:07:28.672Z,10.70
2022-08-27T01:09:59.458Z,11.30
2022-08-27T01:12:28.652Z,10.60
2022-08-27T01:14:56.862Z,10.00
2022-08-27T01:17:25.410Z,9.70
2022-08-27T01:19:56.449Z,13.30
2022-08-27T01:22:33.638Z,12.30
2022-08-27T01:25:04.575Z,10.50
2022-08-27T01:27:32.446Z,10.80
2022-08-27T01:30:01.037Z,11.90
2022-08-27T01:32:34.010Z,11.60
2022-08-27T01:35:03.211Z,9.40
2022-08-27T01:37:31.822Z,11.20
2022-08-27T01:39:59.715Z,10.50
2022-08-27T01:42:35.408Z,10.70
2022-08-27T01:45:06.244Z,9.60
2022-08-27T01:47:35.135Z,10.30
2022-08-27T01:50:08.644Z,12.00
2022-08-27T01:52:37.217Z,8.60
2022-08-27T01:55:07.288Z,12.70
2022-08-27T01:57:35.817Z,11.10
2022-08-27T02:00:05.633Z,10.90
2022-08-27T02:02:33.527Z,12.90
2022-08-27T02:05:01.465Z,12.30
2022-08-27T02:07:29.334Z,11.50
2022-08-27T02:09:57.192Z,13.20
2022-08-27T02:12:25.268Z,12.00
2022-08-27T02:14:53.136Z,11.50
2022-08-27T02:17:21.030Z,11.80
2022-08-27T02:19:49.482Z,10.30
2022-08-27T02:22:17.349Z,10.40
2022-08-27T02:24:45.318Z,10.70
2022-08-27T02:27:13.491Z,10.00
2022-08-27T02:29:42.083Z,9.40
2022-08-27T02:32:22.431Z,11.10
2022-08-27T02:34:57.713Z,9.10
2022-08-27T02:37:25.847Z,9.20
2022-08-27T02:39:53.765Z,12.40
2022-08-27T02:42:21.989Z,9.90
2022-08-27T02:44:49.890Z,9.50
2022-08-27T02:47:18.031Z,11.40
2022-08-27T02:49:46.106Z,10.30
2022-08-27T02:52:14.069Z,11.00
2022-08-27T02:54:42.146Z,10.30
2022-08-27T02:57:10.931Z,9.70
2022-08-27T02:59:39.206Z,9.20
2022-08-27T03:02:07.197Z,9.50
2022-08-27T03:04:35.255Z,9.40
2022-08-27T03:07:03.625Z,10.30
2022-08-27T03:09:31.490Z,10.90
2022-08-27T03:11:59.458Z,10.90
2022-08-27T03:14:27.427Z,14.20
2022-08-27T03:16:55.603Z,11.00
2022-08-27T03:19:23.913Z,11.00
2022-08-27T03:21:54.685Z,10.40
2022-08-27T03:24:22.995Z,12.20
2022-08-27T03:26:53.839Z,11.30
2022-08-27T03:29:22.031Z,13.30
2022-08-27T03:31:49.968Z,10.20
2022-08-27T03:34:19.950Z,15.80
2022-08-27T03:36:49.183Z,10.20
2022-08-27T03:39:16.949Z,12.00
2022-08-27T03:41:54.495Z,10.10
2022-08-27T03:44:24.252Z,9.70
2022-08-27T03:46:53.041Z,10.20
2022-08-27T03:49:22.348Z,11.40
2022-08-27T03:51:51.640Z,10.70
2022-08-27T03:54:20.251Z,10.00
2022-08-27T03:56:48.601Z,10.70
2022-08-27T03:59:16.986Z,10.90
2022-08-27T04:01:45.520Z,13.40
2022-08-27T04:04:13.429Z,12.10
2022-08-27T04:06:41.602Z,9.00
2022-08-27T04:09:09.604Z,11.50
2022-08-27T04:11:37.746Z,11.20
2022-08-27T04:14:07.623Z,11.00
2022-08-27T04:16:54.587Z,10.80
2022-08-27T04:19:26.902Z,13.30
2022-08-27T04:22:05.666Z,12.40
2022-08-27T04:24:35.681Z,13.50
2022-08-27T04:27:04.266Z,12.80
2022-08-27T04:29:32.646Z,10.40
2022-08-27T04:32:01.242Z,10.10
2022-08-27T04:34:30.321Z,11.40
2022-08-27T04:36:58.677Z,12.40
2022-08-27T04:39:28.086Z,11.40
2022-08-27T04:41:56.996Z,10.60
2022-08-27T04:44:26.333Z,9.90
2022-08-27T04:46:59.076Z,12.30
2022-08-27T04:49:28.274Z,13.50
2022-08-27T04:51:56.761Z,11.90
2022-08-27T04:54:32.226Z,11.10
2022-08-27T04:57:03.033Z,12.30
2022-08-27T04:59:32.029Z,11.20
2022-08-27T05:02:01.632Z,13.70
2022-08-27T05:04:34.659Z,10.20
2022-08-27T05:07:02.489Z,11.90
2022-08-27T05:09:30.561Z,11.30
2022-08-27T05:11:59.142Z,12.40
2022-08-27T05:14:30.494Z,12.70
2022-08-27T05:17:00.351Z,12.90
2022-08-27T05:19:28.375Z,11.70
2022-08-27T05:21:57.269Z,11.70
2022-08-27T05:24:28.177Z,14.70
2022-08-27T05:26:56.376Z,11.00
2022-08-27T05:29:24.667Z,13.00
2022-08-27T05:31:52.831Z,12.60
2022-08-27T05:34:26.266Z,12.00
2022-08-27T05:36:55.834Z,11.80
2022-08-27T05:39:25.539Z,9.20
2022-08-27T05:41:56.917Z,12.10
2022-08-27T05:44:42.145Z,11.00
2022-08-27T05:47:10.548Z,11.10
2022-08-27T05:49:38.622Z,11.00
2022-08-27T05:52:10.864Z,11.80
2022-08-27T05:54:39.976Z,11.70
2022-08-27T05:57:08.152Z,10.80
2022-08-27T05:59:55.172Z,10.90
2022-08-27T06:02:23.396Z,12.60
2022-08-27T06:04:51.537Z,11.50
2022-08-27T06:07:19.993Z,11.20
2022-08-27T06:09:48.066Z,15.40
2022-08-27T06:12:16.243Z,11.30
2022-08-27T06:14:44.828Z,11.60
2022-08-27T06:17:12.688Z,14.60
2022-08-27T06:19:42.706Z,13.00
2022-08-27T06:22:11.050Z,11.90
2022-08-27T06:24:41.633Z,13.00
2022-08-27T06:27:11.746Z,12.30
2022-08-27T06:29:41.418Z,12.40
2022-08-27T06:32:10.086Z,11.80
2022-08-27T06:34:38.613Z,14.30
2022-08-27T06:37:07.480Z,10.90
2022-08-27T06:39:36.503Z,13.10
2022-08-27T06:42:06.748Z,17.30
2022-08-27T06:44:35.313Z,12.70
2022-08-27T06:47:04.083Z,13.40
2022-08-27T06:49:33.804Z,14.30
2022-08-27T06:52:03.627Z,12.40
2022-08-27T06:54:32.615Z,14.10
2022-08-27T06:57:00.987Z,16.60
2022-08-27T06:59:29.561Z,13.60
2022-08-27T07:01:57.804Z,14.70
2022-08-27T07:04:32.453Z,13.60
2022-08-27T07:07:02.746Z,14.70
2022-08-27T07:09:32.562Z,14.60
2022-08-27T07:12:01.185Z,13.60
2022-08-27T07:14:33.010Z,13.20
2022-08-27T07:17:05.827Z,13.00
2022-08-27T07:19:40.854Z,14.30
2022-08-27T07:22:11.193Z,13.30
2022-08-27T07:24:39.458Z,12.50
2022-08-27T07:27:08.247Z,15.70
2022-08-27T07:29:36.326Z,14.40
2022-08-27T07:32:05.296Z,13.60
2022-08-27T07:34:33.384Z,14.70
2022-08-27T07:37:01.353Z,14.20
2022-08-27T07:39:29.423Z,12.50
2022-08-27T07:42:16.130Z,16.20
2022-08-27T07:44:44.510Z,12.80
2022-08-27T07:47:13.920Z,13.70
2022-08-27T07:49:42.408Z,15.10
2022-08-27T07:52:10.577Z,15.10
2022-08-27T07:54:38.649Z,13.90
2022-08-27T07:57:06.611Z,13.40
2022-08-27T07:59:35.085Z,13.50
2022-08-27T08:02:03.711Z,15.20
2022-08-27T08:04:31.977Z,13.30
2022-08-27T08:06:59.918Z,16.50
2022-08-27T08:09:27.987Z,17.20
2022-08-27T08:11:56.059Z,13.80
2022-08-27T08:14:24.044Z,13.20
2022-08-27T08:16:52.083Z,14.20
2022-08-27T08:19:20.578Z,13.60
2022-08-27T08:21:49.160Z,14.20
2022-08-27T08:24:18.252Z,11.60
2022-08-27T08:26:46.327Z,12.10
2022-08-27T08:29:18.072Z,13.20
2022-08-27T08:31:50.262Z,13.00
2022-08-27T08:34:20.086Z,14.50
2022-08-27T08:36:54.095Z,15.80
2022-08-27T08:39:24.403Z,13.60
2022-08-27T08:41:57.078Z,17.60
2022-08-27T08:44:35.020Z,13.00
2022-08-27T08:47:05.101Z,15.30
2022-08-27T08:49:43.412Z,12.00
2022-08-27T08:52:30.912Z,12.50
2022-08-27T08:55:13.569Z,14.00
2022-08-27T08:57:48.653Z,14.40
2022-08-27T09:00:17.624Z,14.20
2022-08-27T09:02:52.612Z,13.30
2022-08-27T09:05:27.213Z,12.80
2022-08-27T09:08:28.487Z,14.00
2022-08-27T09:10:55.023Z,11.70
2022-08-27T09:13:25.674Z,12.60
2022-08-27T09:15:55.686Z,11.20
2022-08-27T09:18:25.059Z,12.10
2022-08-27T09:21:16.392Z,12.00
2022-08-27T09:23:57.758Z,12.70
2022-08-27T09:26:27.380Z,14.40
2022-08-27T09:29:25.148Z,14.10
2022-08-27T09:31:56.289Z,12.20
2022-08-27T09:34:25.998Z,11.90
2022-08-27T09:36:59.704Z,13.70
2022-08-27T09:39:46.515Z,13.20
2022-08-27T09:42:28.020Z,13.30
2022-08-27T09:44:57.404Z,11.50
2022-08-27T09:47:26.907Z,14.90
2022-08-27T09:50:09.927Z,13.50
2022-08-27T09:52:59.404Z,12.40
2022-08-27T09:55:28.913Z,15.90
2022-08-27T09:57:58.002Z,10.70
2022-08-27T10:00:33.861Z,13.40
2022-08-27T10:03:03.873Z,12.40
2022-08-27T10:05:36.448Z,13.70
2022-08-27T10:08:20.721Z,12.30
2022-08-27T10:11:00.238Z,14.00
2022-08-27T10:13:28.311Z,12.80
2022-08-27T10:16:12.331Z,14.30
2022-08-27T10:18:51.249Z,13.30
2022-08-27T10:21:41.573Z,14.70
2022-08-27T10:24:14.953Z,11.90
2022-08-27T10:26:47.555Z,14.10
2022-08-27T10:29:31.331Z,11.40
2022-08-27T10:32:08.929Z,10.90
2022-08-27T10:34:43.360Z,9.60
2022-08-27T10:37:40.148Z,10.50
2022-08-27T10:40:26.758Z,10.30
2022-08-27T10:43:05.202Z,10.00
2022-08-27T10:45:43.329Z,10.60
2022-08-27T10:48:12.286Z,10.60
2022-08-27T10:51:11.058Z,12.50
2022-08-27T10:54:06.596Z,9.80
2022-08-27T10:56:47.252Z,10.50
2022-08-27T10:59:21.910Z,9.50
2022-08-27T11:01:57.501Z,9.90
2022-08-27T11:04:28.361Z,8.50
2022-08-27T11:07:03.371Z,9.30
2022-08-27T11:09:37.496Z,9.80
2022-08-27T11:12:14.206Z,8.40
2022-08-27T11:14:54.935Z,9.20
2022-08-27T11:17:32.182Z,8.70
2022-08-27T11:20:21.547Z,10.90
2022-08-27T11:22:53.457Z,9.90
2022-08-27T11:25:22.454Z,9.50
2022-08-27T11:27:52.716Z,8.10
2022-08-27T11:30:51.775Z,9.50
2022-08-27T11:33:36.836Z,10.30
2022-08-27T11:36:25.500Z,9.00
2022-08-27T11:39:02.373Z,9.10
2022-08-27T11:41:45.281Z,9.60
2022-08-27T11:44:19.097Z,9.70
2022-08-27T11:46:53.839Z,7.60
2022-08-27T11:49:25.272Z,7.30
2022-08-27T11:52:02.466Z,11.30
2022-08-27T11:54:49.269Z,8.40
2022-08-27T11:57:31.582Z,9.50
2022-08-27T12:00:11.312Z,8.90
2022-08-27T12:02:39.199Z,10.80
2022-08-27T12:05:24.391Z,8.50
2022-08-27T12:07:54.501Z,7.50
2022-08-27T12:10:43.824Z,7.00
2022-08-27T12:13:14.991Z,9.20
2022-08-27T12:15:48.772Z,8.40
2022-08-27T12:18:34.643Z,8.20
2022-08-27T12:21:17.718Z,10.20
2022-08-27T12:23:50.182Z,12.50
2022-08-27T12:26:31.362Z,10.50
2022-08-27T12:29:18.073Z,16.00
2022-08-27T12:31:49.274Z,10.90
2022-08-27T12:34:23.018Z,8.60
2022-08-27T12:36:52.759Z,7.10
2022-08-27T12:39:27.286Z,10.60
2022-08-27T12:42:00.439Z,8.40
2022-08-27T12:44:33.684Z,6.90
2022-08-27T12:47:09.924Z,7.70
2022-08-27T12:49:53.832Z,7.50
2022-08-27T12:54:56.518Z,10.70
2022-08-27T12:57:30.181Z,12.10
2022-08-27T13:00:15.590Z,8.20
2022-08-27T13:02:45.134Z,6.60
2022-08-27T13:05:16.535Z,7.70
2022-08-27T13:07:46.396Z,7.40
2022-08-27T13:10:16.585Z,5.80
2022-08-27T13:12:45.651Z,6.10
2022-08-27T13:15:15.782Z,5.30
2022-08-27T13:17:45.875Z,7.10
2022-08-27T13:20:19.791Z,7.00
2022-08-27T13:22:47.732Z,6.70
2022-08-27T13:25:23.957Z,9.00
2022-08-27T13:27:54.761Z,8.30
2022-08-27T13:30:35.909Z,6.00
2022-08-27T13:33:08.117Z,5.80
2022-08-27T13:35:37.915Z,7.20
2022-08-27T13:38:05.895Z,5.70
2022-08-27T13:40:36.792Z,8.10
2022-08-27T13:43:09.895Z,7.10
2022-08-27T13:45:44.392Z,7.00
2022-08-27T13:48:12.866Z,7.50
2022-08-27T13:50:47.857Z,7.60
2022-08-27T13:53:40.372Z,7.90
2022-08-27T13:56:09.772Z,6.30
2022-08-27T13:58:38.152Z,9.00
2022-08-27T14:01:11.233Z,7.10
2022-08-27T14:03:47.532Z,6.50
2022-08-27T14:06:41.023Z,8.30
2022-08-27T14:09:24.944Z,6.80
2022-08-27T14:12:06.579Z,7.60
2022-08-27T14:14:41.718Z,6.00
2022-08-27T14:17:29.475Z,6.30
2022-08-27T14:20:01.448Z,7.30
2022-08-27T14:22:30.404Z,7.90
2022-08-27T14:24:58.679Z,7.80
2022-08-27T14:27:27.727Z,8.90
2022-08-27T14:29:57.175Z,6.70
2022-08-27T14:32:25.559Z,5.80
2022-08-27T14:34:53.939Z,7.90
2022-08-27T14:37:22.212Z,8.40
2022-08-27T14:39:51.373Z,6.20
2022-08-27T14:42:20.433Z,7.30
2022-08-27T14:44:49.565Z,7.00
2022-08-27T14:47:18.696Z,9.20
2022-08-27T14:49:47.593Z,5.80
2022-08-27T14:52:16.082Z,6.00
2022-08-27T14:54:44.450Z,5.90
2022-08-27T14:57:14.055Z,7.20
2022-08-27T14:59:42.126Z,6.30
2022-08-27T15:02:13.000Z,8.40
2022-08-27T15:04:42.289Z,6.30
2022-08-27T15:07:14.835Z,6.90
2022-08-27T15:09:43.628Z,6.70
2022-08-27T15:12:25.795Z,8.00
2022-08-27T15:14:56.465Z,6.70
2022-08-27T15:17:34.056Z,6.80
2022-08-27T15:20:09.133Z,6.80
2022-08-27T15:22:40.187Z,7.10
2022-08-27T15:25:14.141Z,5.70
2022-08-27T15:27:42.210Z,9.20
2022-08-27T15:30:12.748Z,6.90
2022-08-27T15:32:43.020Z,6.20
2022-08-27T15:35:14.156Z,6.50
2022-08-27T15:37:43.200Z,10.10
2022-08-27T15:40:12.282Z,4.70
2022-08-27T15:42:42.180Z,8.00
2022-08-27T15:45:11.714Z,6.20
2022-08-27T15:47:40.222Z,7.50
2022-08-27T15:50:08.989Z,7.40
2022-08-27T15:52:41.671Z,6.40
2022-08-27T15:55:15.155Z,6.20
2022-08-27T15:57:43.122Z,4.30
2022-08-27T16:00:12.293Z,7.30
2022-08-27T16:02:41.213Z,6.80
2022-08-27T16:05:11.441Z,7.10
2022-08-27T16:07:39.744Z,7.10
2022-08-27T16:10:08.517Z,4.80
2022-08-27T16:12:36.499Z,6.50
2022-08-27T16:15:05.973Z,5.80
2022-08-27T16:17:34.703Z,6.30
2022-08-27T16:20:05.118Z,7.80
2022-08-27T16:22:35.158Z,4.50
2022-08-27T16:25:03.234Z,6.80
2022-08-27T16:27:31.357Z,4.40
2022-08-27T16:29:59.736Z,5.30
2022-08-27T16:32:29.028Z,5.50
2022-08-27T16:35:00.184Z,5.90
2022-08-27T16:37:28.339Z,6.30
2022-08-27T16:39:56.982Z,5.20
2022-08-27T16:42:25.731Z,6.50
2022-08-27T16:44:53.606Z,5.50
2022-08-27T16:47:21.555Z,5.40
2022-08-27T16:50:08.077Z,7.20
2022-08-27T16:52:36.397Z,7.30
2022-08-27T16:55:04.776Z,5.10
2022-08-27T16:57:32.529Z,7.00
2022-08-27T17:00:00.312Z,6.30
2022-08-27T17:02:35.093Z,5.90
2022-08-27T17:05:33.438Z,7.80
2022-08-27T17:07:50.558Z,6.50
2022-08-27T17:10:19.316Z,6.40
2022-08-27T17:12:48.084Z,7.50
2022-08-27T17:15:16.861Z,6.80
2022-08-27T17:17:45.409Z,7.10
2022-08-27T17:20:15.828Z,7.00
2022-08-27T17:22:44.829Z,6.40
2022-08-27T17:25:12.923Z,6.80
2022-08-27T17:27:40.723Z,7.40
2022-08-27T17:30:09.611Z,6.10
2022-08-27T17:32:40.121Z,8.60
2022-08-27T17:35:09.134Z,7.40
2022-08-27T17:37:37.494Z,7.90
2022-08-27T17:40:05.977Z,8.60
2022-08-27T17:42:34.002Z,9.40
2022-08-27T17:45:03.613Z,9.90
2022-08-27T17:47:32.100Z,7.20
2022-08-27T17:50:00.172Z,8.50
2022-08-27T17:52:29.669Z,8.50
2022-08-27T17:55:00.990Z,8.60
2022-08-27T17:57:40.406Z,6.80
2022-08-27T18:00:10.869Z,8.80
2022-08-27T18:02:40.492Z,8.50
2022-08-27T18:05:10.627Z,9.30
2022-08-27T18:07:40.072Z,7.00
2022-08-27T18:10:10.241Z,8.90
2022-08-27T18:12:41.166Z,7.20
2022-08-27T18:15:21.835Z,8.10
2022-08-27T18:17:53.315Z,10.70
2022-08-27T18:20:24.981Z,10.60
2022-08-27T18:22:53.661Z,8.20
2022-08-27T18:25:27.081Z,9.50
2022-08-27T18:27:57.575Z,9.50
2022-08-27T18:30:25.931Z,10.10
2022-08-27T18:32:55.358Z,9.30
2022-08-27T18:35:25.570Z,8.80
2022-08-27T18:37:54.164Z,9.40
2022-08-27T18:40:25.293Z,11.20
2022-08-27T18:42:56.235Z,9.70
2022-08-27T18:45:28.413Z,13.30
2022-08-27T18:47:59.017Z,11.30
2022-08-27T18:50:28.588Z,12.20
2022-08-27T18:52:59.450Z,9.00
2022-08-27T18:55:29.534Z,12.40
2022-08-27T18:57:59.086Z,10.40
2022-08-27T19:00:28.901Z,12.50
2022-08-27T19:02:57.497Z,12.80
2022-08-27T19:05:26.885Z,11.20
2022-08-27T19:07:57.210Z,11.40
2022-08-27T19:10:26.097Z,12.10
2022-08-27T19:12:56.224Z,12.80
2022-08-27T19:15:24.710Z,12.40
2022-08-27T19:17:55.645Z,12.00
2022-08-27T19:20:24.742Z,10.00
2022-08-27T19:22:55.869Z,14.30
2022-08-27T19:25:26.192Z,11.10
2022-08-27T19:27:56.435Z,12.50
2022-08-27T19:30:27.708Z,12.40
2022-08-27T19:32:57.682Z,11.50
2022-08-27T19:35:26.026Z,10.70
2022-08-27T19:37:53.867Z,11.10
2022-08-27T19:40:22.691Z,12.20
2022-08-27T19:42:51.465Z,10.00
2022-08-27T19:45:23.701Z,11.30
2022-08-27T19:47:54.913Z,11.80
2022-08-27T19:50:24.226Z,11.20
2022-08-27T19:52:53.110Z,11.80
2022-08-27T19:55:22.121Z,11.20
2022-08-27T19:57:52.020Z,12.00
2022-08-27T20:00:22.318Z,11.80
2022-08-27T20:02:52.844Z,11.30
2022-08-27T20:05:23.303Z,10.90
2022-08-27T20:07:53.953Z,11.50
2022-08-27T20:10:25.845Z,11.60
2022-08-27T20:13:01.950Z,11.10
2022-08-27T20:15:30.964Z,11.00
2022-08-27T20:18:00.142Z,10.90
2022-08-27T20:20:29.747Z,13.20
2022-08-27T20:22:59.678Z,11.70
2022-08-27T20:25:29.182Z,11.20
2022-08-27T20:27:59.052Z,11.40
2022-08-27T20:30:29.294Z,11.80
2022-08-27T20:32:59.223Z,10.80
2022-08-27T20:35:28.311Z,10.80
2022-08-27T20:37:58.080Z,11.30
2022-08-27T20:40:31.282Z,12.50
2022-08-27T20:43:01.742Z,11.30
2022-08-27T20:45:33.557Z,11.00
2022-08-27T20:48:04.451Z,13.90
2022-08-27T20:50:34.525Z,12.00
2022-08-27T20:53:04.630Z,12.30
2022-08-27T20:55:33.369Z,13.00
2022-08-27T20:58:22.938Z,13.40
2022-08-27T21:00:54.065Z,12.40
2022-08-27T21:03:23.584Z,16.00
2022-08-27T21:05:53.005Z,14.60
2022-08-27T21:08:22.315Z,14.40
2022-08-27T21:10:52.842Z,13.50
2022-08-27T21:13:21.908Z,15.10
2022-08-27T21:15:54.657Z,14.40
2022-08-27T21:18:29.805Z,14.90
2022-08-27T21:21:00.152Z,15.60
2022-08-27T21:23:29.962Z,18.00
2022-08-27T21:26:02.544Z,15.30
2022-08-27T21:28:30.746Z,17.20
2022-08-27T21:30:59.335Z,18.70
2022-08-27T21:33:27.966Z,16.10
2022-08-27T21:35:56.687Z,16.50
2022-08-27T21:38:25.444Z,15.20
2022-08-27T21:40:54.471Z,17.40
2022-08-27T21:43:23.157Z,17.60
2022-08-27T21:45:56.881Z,18.30
2022-08-27T21:48:28.358Z,16.40
2022-08-27T21:50:58.009Z,19.40
2022-08-27T21:53:26.313Z,16.40
2022-08-27T21:55:55.679Z,20.50
2022-08-27T21:58:26.545Z,17.50
2022-08-27T22:00:55.992Z,18.10
2022-08-27T22:03:24.921Z,17.90
2022-08-27T22:05:52.728Z,19.70
2022-08-27T22:08:22.186Z,19.60
2022-08-27T22:10:52.819Z,18.90
2022-08-27T22:13:22.007Z,18.60
2022-08-27T22:15:50.425Z,18.10
2022-08-27T22:18:19.001Z,19.10
2022-08-27T22:20:51.509Z,18.00
2022-08-27T22:23:20.052Z,19.50
2022-08-27T22:25:48.303Z,18.20
2022-08-27T22:28:17.012Z,20.80
2022-08-27T22:30:46.693Z,20.00
2022-08-27T22:33:14.873Z,19.50
2022-08-27T22:35:42.843Z,21.70
2022-08-27T22:38:12.595Z,20.30
2022-08-27T22:40:41.412Z,21.70
2022-08-27T22:43:09.543Z,22.40
2022-08-27T22:45:37.826Z,20.90
2022-08-27T22:48:05.899Z,26.00
2022-08-27T22:50:33.836Z,22.50
2022-08-27T22:53:01.815Z,24.10
2022-08-27T22:55:29.908Z,24.80
2022-08-27T22:57:57.798Z,21.80
2022-08-27T23:00:27.444Z,22.90
2022-08-27T23:02:55.577Z,23.10
2022-08-27T23:05:23.672Z,23.50
2022-08-27T23:07:52.382Z,24.00
2022-08-27T23:10:22.418Z,21.80
2022-08-27T23:12:50.255Z,20.80
2022-08-27T23:15:18.302Z,22.60
2022-08-27T23:17:46.401Z,26.00
2022-08-27T23:20:14.703Z,23.30
2022-08-27T23:22:43.055Z,24.10
2022-08-27T23:25:31.918Z,23.60
2022-08-27T23:28:00.437Z,23.90
2022-08-27T23:30:29.944Z,26.00
2022-08-27T23:32:58.176Z,24.50
2022-08-27T23:35:27.324Z,24.20
2022-08-27T23:37:55.979Z,26.20
2022-08-27T23:40:23.840Z,28.10
2022-08-27T23:42:52.433Z,27.60
2022-08-27T23:45:23.234Z,27.70
2022-08-27T23:47:52.546Z,29.40
2022-08-27T23:50:23.126Z,27.90
2022-08-27T23:53:03.745Z,29.40
2022-08-27T23:55:33.358Z,28.90
2022-08-27T23:58:01.713Z,30.90
